»·PEaware :: N143VT KPSP-KBUR

N143VT :: KPSP-KBUR

FLIGHT INFORMATION

Flight Status: Arrived
Operator: Privately registered:
United States
More flights under this callsign
Pilot: Anonymous 16492 (16492)
Aircraft: Unknown
(EPIC)
More flights by this aircraft type
Origin: KPSP Palm Springs Intl
United States
Destination: KBUR Bob Hope-Burbank
United States
More flights between these airports :: More routes between these airports
Route: +CATH1 PSP V388 PDZ V197 POM V264 ITSME V186 VNY
File this flight plan on PilotEdge
Remarks: PSPN2
Altitude:
(Current/Filed)
12,000ft
Speed:
(Current/Filed)
300kts
Departed: 26-Dec-17 08:11 PM
Arrived: 26-Dec-17 08:58 PM
Distance/Time
Traveled:
95nm/0:47
Distance/Time
To Go:
Arrived

Flight Plot

Page will automatically refresh every two minutes.


Map Options




Map Legend


Flown Route
Filed Route
Departure Airport
Arrival Airport
Navaid (VOR, NDB)
Fix

Horizontal Profiles

Position Reports

Time Latitude Longitude Heading Altitude Ground
Speed
26-Dec-17 19:58 33.826301 -116.508731 272 426ft 0kts
26-Dec-17 19:59 33.826301 -116.508731 272 426ft 0kts
26-Dec-17 20:00 33.826301 -116.508731 272 426ft 0kts
26-Dec-17 20:01 33.826301 -116.508731 272 426ft 0kts
26-Dec-17 20:02 33.826301 -116.508731 272 426ft 0kts
26-Dec-17 20:03 33.826301 -116.508731 272 426ft 0kts
26-Dec-17 20:04 33.826301 -116.508731 272 426ft 0kts
26-Dec-17 20:05 33.826301 -116.508731 272 426ft 0kts
26-Dec-17 20:06 33.826301 -116.508731 272 426ft 0kts
26-Dec-17 20:07 33.826301 -116.508731 272 426ft 0kts
26-Dec-17 20:08 33.826301 -116.508732 271 426ft 0kts
26-Dec-17 20:09 33.826301 -116.508732 271 426ft 0kts
26-Dec-17 20:10 33.826301 -116.508732 271 426ft 0kts
26-Dec-17 20:11 33.826313 -116.508958 195 426ft 7kts
26-Dec-17 20:12 33.825601 -116.507236 25 426ft 0kts
26-Dec-17 20:13 33.825684 -116.507191 19 426ft 0kts
26-Dec-17 20:14 33.825724 -116.506180 140 426ft 16kts
26-Dec-17 20:15 33.820601 -116.501592 142 426ft 25kts
26-Dec-17 20:16 33.818718 -116.498267 40 426ft 13kts
26-Dec-17 20:17 33.841789 -116.519245 321 1118ft 201kts
26-Dec-17 20:18 33.876303 -116.552241 321 5663ft 161kts
26-Dec-17 20:19 33.915826 -116.573686 33 9298ft 166kts
26-Dec-17 20:20 33.912862 -116.520856 117 11961ft 204kts
26-Dec-17 20:21 33.885194 -116.459887 118 11998ft 204kts
26-Dec-17 20:22 33.857833 -116.401021 115 11999ft 200kts
26-Dec-17 20:23 33.832709 -116.341616 115 11994ft 198kts
26-Dec-17 20:24 33.863432 -116.322375 297 12000ft 202kts
26-Dec-17 20:25 33.868238 -116.389645 273 11997ft 203kts
26-Dec-17 20:26 33.877392 -116.456662 286 12000ft 204kts
26-Dec-17 20:27 33.893559 -116.521972 287 12000ft 204kts
26-Dec-17 20:28 33.910096 -116.587537 287 12000ft 204kts
26-Dec-17 20:29 33.926557 -116.652629 286 12000ft 204kts
26-Dec-17 20:30 33.943104 -116.718158 286 11994ft 204kts
26-Dec-17 20:31 33.946533 -116.785836 268 11990ft 204kts
26-Dec-17 20:32 33.944617 -116.854362 267 11985ft 204kts
26-Dec-17 20:33 33.942020 -116.925820 267 11869ft 248kts
26-Dec-17 20:34 33.938434 -117.022094 268 10399ft 298kts
26-Dec-17 20:35 33.934763 -117.120056 268 9025ft 287kts
26-Dec-17 20:36 33.931241 -117.210925 268 8988ft 260kts
26-Dec-17 20:37 33.927747 -117.299461 268 8992ft 275kts
26-Dec-17 20:38 33.924050 -117.391243 268 8792ft 282kts
26-Dec-17 20:39 33.920350 -117.481526 268 6887ft 258kts
26-Dec-17 20:40 33.940173 -117.560501 304 5993ft 263kts
26-Dec-17 20:41 33.982839 -117.632717 307 5989ft 266kts
26-Dec-17 20:42 34.026969 -117.704193 307 5989ft 267kts
26-Dec-17 20:43 34.070593 -117.775499 297 5977ft 264kts
26-Dec-17 20:44 34.076303 -117.863496 271 5934ft 264kts
26-Dec-17 20:45 34.075724 -117.951783 269 5931ft 264kts
26-Dec-17 20:46 34.086486 -118.038688 289 5928ft 264kts
26-Dec-17 20:47 34.109308 -118.115983 290 5923ft 226kts
26-Dec-17 20:48 34.128162 -118.182623 273 5985ft 200kts
26-Dec-17 20:49 34.128787 -118.247975 271 5990ft 190kts
26-Dec-17 20:50 34.129321 -118.311043 271 5990ft 186kts
26-Dec-17 20:51 34.129868 -118.372945 272 5992ft 183kts
26-Dec-17 20:52 34.130523 -118.434030 272 5993ft 181kts
26-Dec-17 20:53 34.131367 -118.494766 272 5994ft 180kts
26-Dec-17 20:54 34.133829 -118.556010 295 5987ft 190kts
26-Dec-17 20:55 34.184845 -118.573294 352 5995ft 203kts
26-Dec-17 20:56 34.241518 -118.582074 352 5992ft 207kts
26-Dec-17 20:57 34.298875 -118.591321 352 6002ft 208kts
26-Dec-17 20:58 34.339649 -118.564090 100 6019ft 215kts
26-Dec-17 20:59 34.329855 -118.491913 96 5291ft 218kts
26-Dec-17 21:00 34.322851 -118.419958 100 3785ft 213kts
26-Dec-17 21:01 34.278189 -118.382246 163 2865ft 178kts
26-Dec-17 21:02 34.239325 -118.367993 167 1352ft 119kts
26-Dec-17 21:03 34.209993 -118.359857 167 750ft 94kts
26-Dec-17 21:04 34.198880 -118.357878 275 734ft 2kts
26-Dec-17 21:05 34.199759 -118.360044 62 734ft 17kts
26-Dec-17 21:06 34.200418 -118.358826 66 734ft 0kts
26-Dec-17 21:07 34.200418 -118.358826 66 734ft 0kts
26-Dec-17 21:08 34.200418 -118.358826 66 734ft 0kts

Navigation Log

Ident Type
1. KPSP Airport
2. PSP Navaid
3. DEWAY Fix
4. ACINS Fix
5. LENHO Fix
6. KNDAL Fix
7. PDZ Navaid
8. POM Navaid
9. COVIN Fix
10. HOPUN Fix
11. ITSME Fix
12. ELMOO Fix
13. PURMS Fix
14. DARTS Fix
15. VNY Navaid
16. KBUR Airport